Time;durP1;ratioP1;P1;durP2;ratioP2;P2;SDS_P1;SDS_P2;PMS_P1;PMS_P2;Temp;Humidity;BMP_temperature;BMP_pressure;BME280_temperature;BME280_humidity;BME280_pressure;Samples;Min_cycle;Max_cycle;Signal;HPM_P1;HPM_P2
2023/10/12 00:03:21;;;;;;;10.17;5.73;;;17.90;89.60;;;;;;21164807;28;20243;-68
2023/10/12 00:13:28;;;;;;;12.77;5.20;;;17.80;90.10;;;;;;21179996;28;20546;-67
2023/10/12 00:23:33;;;;;;;15.97;5.80;;;17.80;90.50;;;;;;21178657;28;20237;-67
2023/10/12 00:33:35;;;;;;;11.00;5.43;;;17.70;90.70;;;;;;21177937;28;20281;-67
2023/10/12 00:54:10;;;;;;;11.90;4.50;;;17.70;91.30;;;;;;21176390;28;20229;-68
2023/10/12 01:04:16;;;;;;;10.90;4.90;;;18.00;91.30;;;;;;21175537;28;20233;-68
2023/10/12 01:14:18;;;;;;;12.70;3.90;;;18.30;90.90;;;;;;21174569;28;20206;-67
2023/10/12 01:24:29;;;;;;;11.80;4.50;;;18.60;90.30;;;;;;21173862;28;20265;-68
2023/10/12 01:34:36;;;;;;;8.60;4.00;;;18.90;88.30;;;;;;21173209;28;20292;-68
2023/10/12 01:44:38;;;;;;;17.00;4.50;;;18.90;88.30;;;;;;21172717;28;20320;-68
2023/10/12 01:54:44;;;;;;;9.73;4.27;;;19.00;87.40;;;;;;21171543;28;20230;-68
2023/10/12 02:04:47;;;;;;;10.40;3.90;;;19.10;86.70;;;;;;21170713;28;20233;-68
2023/10/12 02:14:49;;;;;;;8.50;3.83;;;19.10;86.10;;;;;;21170543;28;20292;-68
2023/10/12 02:24:59;;;;;;;9.27;4.57;;;19.20;85.50;;;;;;21168235;28;20244;-68
2023/10/12 02:35:11;;;;;;;9.83;4.23;;;19.20;85.10;;;;;;21168511;28;20213;-69
2023/10/12 03:05:32;;;;;;;9.90;4.33;;;19.30;83.90;;;;;;21165933;28;20688;-68
2023/10/12 03:15:49;;;;;;;12.90;5.13;;;19.30;83.60;;;;;;21165500;28;20201;-68
2023/10/12 03:25:51;;;;;;;12.67;5.27;;;19.20;82.80;;;;;;21164394;28;20286;-68
2023/10/12 03:46:26;;;;;;;11.60;4.67;;;19.10;83.50;;;;;;21163590;28;20241;-68
2023/10/12 03:56:36;;;;;;;10.07;4.60;;;19.10;83.70;;;;;;21162739;28;20238;-67
2023/10/12 04:07:37;;;;;;;8.33;4.73;;;19.00;83.80;;;;;;21162391;28;20232;-68
2023/10/12 04:17:18;;;;;;;7.50;4.63;;;19.00;84.10;;;;;;21155102;28;20241;-68
2023/10/12 04:27:24;;;;;;;10.73;4.17;;;18.90;84.20;;;;;;21161658;28;20233;-68
2023/10/12 04:37:27;;;;;;;8.97;4.53;;;18.90;84.30;;;;;;21161457;28;20220;-68
2023/10/12 04:47:35;;;;;;;9.13;4.60;;;18.90;84.30;;;;;;21159173;28;20312;-68
2023/10/12 04:57:40;;;;;;;14.97;5.10;;;18.90;84.30;;;;;;21176048;28;20283;-68
2023/10/12 05:07:54;;;;;;;13.27;4.50;;;18.90;83.90;;;;;;21175429;28;20226;-68
2023/10/12 05:17:57;;;;;;;9.07;4.47;;;18.90;84.50;;;;;;21174450;28;20569;-68
2023/10/12 05:28:13;;;;;;;15.40;5.23;;;18.90;84.70;;;;;;21173928;28;20283;-68
2023/10/12 05:38:17;;;;;;;9.73;5.07;;;18.80;84.90;;;;;;21172751;28;20209;-68
2023/10/12 05:48:20;;;;;;;9.77;4.80;;;18.80;85.20;;;;;;21171931;28;20237;-68
2023/10/12 05:58:21;;;;;;;11.00;5.70;;;18.70;86.00;;;;;;21171377;28;20232;-68
2023/10/12 06:08:26;;;;;;;10.20;4.80;;;18.70;85.80;;;;;;21170053;28;20238;-68
2023/10/12 06:18:30;;;;;;;13.10;5.10;;;18.70;85.40;;;;;;21169380;28;20208;-67
2023/10/12 06:28:32;;;;;;;8.43;4.50;;;18.70;86.10;;;;;;21169078;28;20347;-67
2023/10/12 06:38:47;;;;;;;12.07;4.57;;;18.70;86.10;;;;;;21149490;28;20648;-68
2023/10/12 06:48:58;;;;;;;9.63;5.10;;;18.80;86.10;;;;;;21166737;28;20265;-68
2023/10/12 07:09:27;;;;;;;11.23;4.93;;;18.80;86.50;;;;;;21165258;28;20236;-68
2023/10/12 07:19:30;;;;;;;11.43;4.97;;;18.90;86.80;;;;;;21164380;28;20235;-68
2023/10/12 07:29:39;;;;;;;11.70;4.90;;;18.90;86.80;;;;;;21164287;28;20237;-68
2023/10/12 07:39:44;;;;;;;13.33;5.07;;;18.90;86.90;;;;;;21163272;28;20231;-68
2023/10/12 07:49:51;;;;;;;13.10;5.70;;;19.00;86.70;;;;;;21162530;28;20646;-68
2023/10/12 08:10:09;;;;;;;16.17;4.60;;;19.20;86.60;;;;;;21161909;28;20691;-68
2023/10/12 08:41:20;;;;;;;15.40;5.10;;;19.30;86.90;;;;;;21177533;28;20248;-69
2023/10/12 08:51:17;;;;;;;10.93;5.10;;;19.40;86.90;;;;;;21176297;28;20701;-69
2023/10/12 09:01:31;;;;;;;15.73;5.10;;;19.50;86.80;;;;;;21176094;28;20209;-68
2023/10/12 09:11:33;;;;;;;9.87;4.43;;;19.60;86.70;;;;;;21174803;28;20264;-68
2023/10/12 09:21:39;;;;;;;11.57;5.17;;;19.80;86.60;;;;;;21173888;28;20206;-68
2023/10/12 09:41:54;;;;;;;9.23;4.80;;;20.00;86.20;;;;;;21172537;28;20205;-68
2023/10/12 09:52:03;;;;;;;13.30;5.30;;;20.00;86.10;;;;;;21171778;28;20243;-69
2023/10/12 10:02:27;;;;;;;15.23;5.30;;;20.00;86.30;;;;;;21170844;28;20212;-69
2023/10/12 10:12:35;;;;;;;18.27;5.80;;;20.00;86.70;;;;;;21170499;28;20715;-69
2023/10/12 10:22:38;;;;;;;11.43;4.87;;;20.10;87.30;;;;;;21169209;28;20688;-68
2023/10/12 10:32:40;;;;;;;17.40;5.63;;;20.10;87.80;;;;;;21168604;28;20302;-68
2023/10/12 10:42:45;;;;;;;13.40;4.67;;;20.30;88.00;;;;;;21167610;28;20259;-68
2023/10/12 10:52:48;;;;;;;16.43;5.60;;;20.40;88.10;;;;;;21165723;28;20234;-68
2023/10/12 11:02:52;;;;;;;13.17;5.40;;;20.50;87.50;;;;;;21165589;28;20210;-68
2023/10/12 11:12:55;;;;;;;11.13;4.57;;;20.50;88.30;;;;;;21165521;28;20321;-69
2023/10/12 11:22:59;;;;;;;10.13;5.00;;;20.50;87.80;;;;;;21164502;28;20208;-69
2023/10/12 11:33:06;;;;;;;15.83;4.87;;;20.50;89.10;;;;;;21164056;28;20260;-68
2023/10/12 11:43:08;;;;;;;11.60;4.83;;;20.40;90.00;;;;;;21144352;28;20207;-69
2023/10/12 11:53:14;;;;;;;11.43;5.30;;;20.60;91.20;;;;;;21133046;28;20343;-69
2023/10/12 12:03:17;;;;;;;18.37;5.33;;;20.60;91.60;;;;;;21112281;28;20209;-68
2023/10/12 12:13:23;;;;;;;8.60;5.20;;;20.60;92.00;;;;;;21114569;28;20205;-68
2023/10/12 12:23:32;;;;;;;15.57;5.27;;;20.50;92.40;;;;;;21189805;28;20232;-68
2023/10/12 12:33:41;;;;;;;14.80;4.93;;;20.50;92.70;;;;;;21189701;28;20637;-68
2023/10/12 12:43:43;;;;;;;12.30;5.13;;;20.50;93.00;;;;;;21188112;28;20279;-68
2023/10/12 12:53:47;;;;;;;13.50;6.20;;;20.40;93.30;;;;;;21188457;28;20234;-68
2023/10/12 13:03:56;;;;;;;13.10;5.63;;;20.40;93.80;;;;;;21188417;28;20233;-68
2023/10/12 13:13:58;;;;;;;12.90;6.97;;;20.40;94.00;;;;;;21180081;28;20255;-69
2023/10/12 13:24:06;;;;;;;11.67;5.40;;;20.40;94.40;;;;;;21173525;28;20587;-72
2023/10/12 13:34:10;;;;;;;9.83;5.57;;;20.30;94.70;;;;;;21173251;28;20237;-69
2023/10/12 13:44:16;;;;;;;11.00;6.07;;;20.30;95.00;;;;;;21172731;28;20226;-68
2023/10/12 13:54:19;;;;;;;23.23;7.70;;;20.40;95.50;;;;;;21171476;28;20603;-71
2023/10/12 14:04:33;;;;;;;23.60;6.50;;;20.50;96.10;;;;;;21171009;28;20598;-76
2023/10/12 14:14:35;;;;;;;13.37;6.53;;;20.60;96.40;;;;;;21171164;28;20539;-69
2023/10/12 14:24:37;;;;;;;11.67;5.80;;;20.60;96.70;;;;;;21168071;28;20320;-74
2023/10/12 14:34:39;;;;;;;12.57;6.33;;;20.60;96.90;;;;;;21168462;28;20289;-69
2023/10/12 14:44:43;;;;;;;12.77;5.37;;;20.40;96.80;;;;;;21167916;28;20234;-69
2023/10/12 14:54:45;;;;;;;10.90;5.23;;;20.30;96.90;;;;;;21148261;28;20268;-71
2023/10/12 15:04:46;;;;;;;14.50;5.73;;;20.20;96.90;;;;;;21166088;28;20240;-72
2023/10/12 15:14:50;;;;;;;14.63;5.47;;;19.80;97.10;;;;;;21165205;28;20205;-73
2023/10/12 15:24:52;;;;;;;10.27;5.97;;;19.50;97.80;;;;;;21164646;28;20234;-70
2023/10/12 15:34:56;;;;;;;12.47;5.97;;;19.10;98.70;;;;;;21163858;28;20677;-72
2023/10/12 15:44:58;;;;;;;11.37;6.13;;;19.00;99.20;;;;;;21163912;28;20775;-70
2023/10/12 15:55:00;;;;;;;10.57;5.77;;;18.80;99.90;;;;;;21162723;28;20238;-80
2023/10/12 16:05:06;;;;;;;16.20;6.70;;;18.70;99.90;;;;;;21162490;28;20639;-68
2023/10/12 16:15:12;;;;;;;13.80;6.40;;;18.80;99.90;;;;;;21162564;28;20278;-68
2023/10/12 16:25:19;;;;;;;9.67;6.03;;;18.80;99.90;;;;;;21161953;28;20325;-75
2023/10/12 16:35:23;;;;;;;13.90;6.73;;;18.60;99.90;;;;;;21161922;28;20214;-74
2023/10/12 16:45:26;;;;;;;12.70;7.00;;;18.60;99.90;;;;;;21163779;28;20234;-74
2023/10/12 16:55:30;;;;;;;15.57;7.77;;;18.60;99.90;;;;;;21176642;28;20244;-71
2023/10/12 17:05:32;;;;;;;15.30;8.20;;;18.60;99.90;;;;;;21175791;28;20311;-72
2023/10/12 17:15:34;;;;;;;13.83;8.30;;;18.60;99.90;;;;;;21126555;28;20292;-71
2023/10/12 17:25:36;;;;;;;14.50;8.13;;;18.50;99.90;;;;;;21158549;28;20642;-71
2023/10/12 17:35:40;;;;;;;18.17;7.70;;;18.50;99.90;;;;;;21089256;28;20202;-71
2023/10/12 17:45:41;;;;;;;14.50;7.60;;;18.50;99.90;;;;;;21130410;28;20673;-68
2023/10/12 17:55:43;;;;;;;13.77;7.27;;;18.50;99.90;;;;;;21153630;28;20236;-68
2023/10/12 18:05:51;;;;;;;16.67;8.60;;;18.40;99.90;;;;;;21171086;28;20240;-68
2023/10/12 18:16:00;;;;;;;16.43;8.70;;;18.30;99.90;;;;;;21161231;28;20212;-70
2023/10/12 18:26:03;;;;;;;15.07;8.27;;;18.30;99.90;;;;;;21085371;28;20287;-69
2023/10/12 18:36:09;;;;;;;17.50;10.10;;;18.30;99.90;;;;;;21084360;28;20682;-70
2023/10/12 18:46:12;;;;;;;15.03;9.20;;;18.30;99.90;;;;;;21065708;28;20245;-69
2023/10/12 18:56:15;;;;;;;21.00;8.90;;;18.30;99.90;;;;;;21083144;28;20237;-69
2023/10/12 19:06:17;;;;;;;17.77;9.00;;;18.30;99.90;;;;;;21082320;28;20282;-69
2023/10/12 19:16:19;;;;;;;16.73;9.40;;;18.30;99.90;;;;;;21092955;28;20686;-69
2023/10/12 19:26:21;;;;;;;18.37;10.07;;;18.20;99.90;;;;;;21165323;28;20591;-68
2023/10/12 19:36:24;;;;;;;16.93;9.20;;;18.20;99.90;;;;;;21164003;28;20205;-69
2023/10/12 19:46:38;;;;;;;16.20;9.20;;;18.10;99.90;;;;;;21163613;28;20638;-72
2023/10/12 19:56:40;;;;;;;14.27;8.30;;;18.00;99.90;;;;;;21163408;28;20760;-70
2023/10/12 20:06:42;;;;;;;15.97;8.57;;;18.00;99.90;;;;;;21162943;28;20316;-69
2023/10/12 20:16:44;;;;;;;12.30;6.47;;;18.00;99.90;;;;;;21146546;28;20230;-71
2023/10/12 20:26:46;;;;;;;12.03;6.47;;;18.10;99.90;;;;;;21093105;28;20238;-70
2023/10/12 20:36:48;;;;;;;13.63;6.50;;;18.20;99.90;;;;;;21093997;28;20210;-70
2023/10/12 20:46:50;;;;;;;22.40;8.40;;;18.30;99.90;;;;;;21092908;28;20234;-69
2023/10/12 20:56:52;;;;;;;16.07;8.20;;;18.20;99.90;;;;;;21092590;28;20231;-69
2023/10/12 21:06:55;;;;;;;13.27;8.93;;;18.20;99.90;;;;;;21092422;28;20241;-70
2023/10/12 21:16:57;;;;;;;13.93;8.47;;;18.10;99.90;;;;;;21109167;28;20237;-69
2023/10/12 21:27:06;;;;;;;19.33;8.13;;;18.10;99.90;;;;;;21171952;28;20236;-69
2023/10/12 21:37:11;;;;;;;13.30;8.83;;;18.10;99.90;;;;;;21173790;28;20205;-69
2023/10/12 21:47:20;;;;;;;18.50;8.90;;;18.00;99.90;;;;;;21173097;28;20269;-69
2023/10/12 21:57:21;;;;;;;12.43;8.53;;;18.00;99.90;;;;;;21172501;28;20237;-69
2023/10/12 22:07:23;;;;;;;13.20;8.77;;;18.00;99.90;;;;;;21171114;28;20237;-69
2023/10/12 22:17:27;;;;;;;18.37;8.73;;;18.00;99.90;;;;;;21170534;28;20284;-69
2023/10/12 22:27:29;;;;;;;16.50;9.20;;;17.90;99.90;;;;;;21170345;28;20611;-69
2023/10/12 22:37:34;;;;;;;15.93;9.20;;;17.90;99.90;;;;;;21169036;28;20206;-68
2023/10/12 22:47:36;;;;;;;17.07;7.43;;;17.90;99.90;;;;;;21167887;28;20291;-69
2023/10/12 22:57:38;;;;;;;17.00;9.57;;;18.00;99.90;;;;;;21167848;28;20719;-69
2023/10/12 23:07:40;;;;;;;19.13;8.47;;;18.00;99.90;;;;;;21166368;28;20696;-69
2023/10/12 23:17:45;;;;;;;13.97;7.83;;;18.00;99.90;;;;;;21165960;28;20304;-69
2023/10/12 23:27:50;;;;;;;19.77;8.30;;;17.90;99.90;;;;;;21165467;28;20241;-69
2023/10/12 23:37:58;;;;;;;11.17;7.80;;;17.90;99.90;;;;;;21164372;28;20233;-69
2023/10/12 23:48:07;;;;;;;12.07;6.70;;;17.90;99.90;;;;;;21163801;28;20259;-68
2023/10/12 23:58:12;;;;;;;13.50;6.87;;;18.00;99.90;;;;;;21163237;28;20234;-69
